createdAt,value
2023-05-21T00:02:22.699Z,18.30
2023-05-21T00:04:49.410Z,18.30
2023-05-21T00:07:16.211Z,18.30
2023-05-21T00:09:42.984Z,18.80
2023-05-21T00:12:09.644Z,18.20
2023-05-21T00:14:36.498Z,18.20
2023-05-21T00:17:03.724Z,18.50
2023-05-21T00:19:32.666Z,18.30
2023-05-21T00:22:02.201Z,18.30
2023-05-21T00:24:30.217Z,18.20
2023-05-21T00:26:56.791Z,18.30
2023-05-21T00:29:23.770Z,18.30
2023-05-21T00:31:51.096Z,20.00
2023-05-21T00:34:18.203Z,18.30
2023-05-21T00:36:45.496Z,18.30
2023-05-21T00:39:12.665Z,18.30
2023-05-21T00:41:43.124Z,18.30
2023-05-21T00:44:09.827Z,18.30
2023-05-21T00:46:36.433Z,18.30
2023-05-21T00:49:03.069Z,18.20
2023-05-21T00:51:30.413Z,18.20
2023-05-21T00:53:58.046Z,18.10
2023-05-21T00:56:24.978Z,18.10
2023-05-21T00:58:54.599Z,18.00
2023-05-21T01:01:21.414Z,18.00
2023-05-21T01:03:48.734Z,18.00
2023-05-21T01:06:16.026Z,17.90
2023-05-21T01:08:42.768Z,17.90
2023-05-21T01:11:09.893Z,17.90
2023-05-21T01:13:38.516Z,17.90
2023-05-21T01:16:06.887Z,17.80
2023-05-21T01:18:35.189Z,17.80
2023-05-21T01:21:02.445Z,18.10
2023-05-21T01:23:29.345Z,17.70
2023-05-21T01:25:56.088Z,17.60
2023-05-21T01:28:22.709Z,17.60
2023-05-21T01:30:49.312Z,17.50
2023-05-21T01:33:22.906Z,17.50
2023-05-21T01:35:51.925Z,17.40
2023-05-21T01:38:24.754Z,17.50
2023-05-21T01:40:52.111Z,17.40
2023-05-21T01:43:19.556Z,17.40
2023-05-21T01:45:47.446Z,17.50
2023-05-21T01:48:14.836Z,17.50
2023-05-21T01:50:42.402Z,17.40
2023-05-21T01:53:09.060Z,17.40
2023-05-21T01:55:39.444Z,17.40
2023-05-21T01:58:06.113Z,17.40
2023-05-21T02:00:34.701Z,17.30
2023-05-21T02:03:02.686Z,17.40
2023-05-21T02:05:29.561Z,17.50
2023-05-21T02:07:56.966Z,17.30
2023-05-21T02:10:23.595Z,17.20
2023-05-21T02:12:50.174Z,17.20
2023-05-21T02:15:18.185Z,17.30
2023-05-21T02:17:45.470Z,17.20
2023-05-21T02:20:12.844Z,17.10
2023-05-21T02:22:40.402Z,17.10
2023-05-21T02:25:07.936Z,17.10
2023-05-21T02:27:38.346Z,17.10
2023-05-21T02:30:06.138Z,17.10
2023-05-21T02:32:32.838Z,17.10
2023-05-21T02:34:59.947Z,17.10
2023-05-21T02:37:29.576Z,17.10
2023-05-21T02:39:56.429Z,17.00
2023-05-21T02:42:23.640Z,17.00
2023-05-21T02:44:51.150Z,17.00
2023-05-21T02:47:18.595Z,16.90
2023-05-21T02:49:45.625Z,17.10
2023-05-21T02:52:12.665Z,16.90
2023-05-21T02:54:39.288Z,17.20
2023-05-21T02:57:06.015Z,16.90
2023-05-21T02:59:32.603Z,16.90
2023-05-21T03:01:59.302Z,16.80
2023-05-21T03:04:28.193Z,16.80
2023-05-21T03:06:55.333Z,16.80
2023-05-21T03:09:22.264Z,17.00
2023-05-21T03:11:49.281Z,16.80
2023-05-21T03:14:16.340Z,16.80
2023-05-21T03:16:43.751Z,16.80
2023-05-21T03:19:11.436Z,16.70
2023-05-21T03:21:38.295Z,16.70
2023-05-21T03:24:05.739Z,16.70
2023-05-21T03:26:32.354Z,16.60
2023-05-21T03:28:59.166Z,16.70
2023-05-21T03:31:26.452Z,16.80
2023-05-21T03:33:53.865Z,16.60
2023-05-21T03:36:20.843Z,16.50
2023-05-21T03:38:47.468Z,16.50
2023-05-21T03:41:14.070Z,16.50
2023-05-21T03:43:40.680Z,16.50
2023-05-21T03:46:07.433Z,16.50
2023-05-21T03:48:34.069Z,16.50
2023-05-21T03:51:00.718Z,16.50
2023-05-21T03:53:27.361Z,16.50
2023-05-21T03:55:55.397Z,16.50
2023-05-21T03:58:22.413Z,16.40
2023-05-21T04:00:49.136Z,16.50
2023-05-21T04:03:16.094Z,16.50
2023-05-21T04:05:42.925Z,16.50
2023-05-21T04:08:09.698Z,16.40
2023-05-21T04:10:36.370Z,16.50
2023-05-21T04:13:03.051Z,16.50
2023-05-21T04:15:29.798Z,16.60
2023-05-21T04:17:57.119Z,16.70
2023-05-21T04:20:23.905Z,16.60
2023-05-21T04:22:51.738Z,15.30
2023-05-21T04:25:20.342Z,16.60
2023-05-21T04:27:48.037Z,16.70
2023-05-21T04:30:14.708Z,16.90
2023-05-21T04:32:41.398Z,16.80
2023-05-21T04:35:08.308Z,16.80
2023-05-21T04:37:42.111Z,16.80
2023-05-21T04:40:09.609Z,16.90
2023-05-21T04:42:36.287Z,16.80
2023-05-21T04:45:02.958Z,16.90
2023-05-21T04:47:35.391Z,16.90
2023-05-21T04:50:02.541Z,17.00
2023-05-21T04:52:29.131Z,17.00
2023-05-21T04:54:55.771Z,17.20
2023-05-21T04:57:24.484Z,17.10
2023-05-21T04:59:51.123Z,17.20
2023-05-21T05:02:17.739Z,14.00
2023-05-21T05:04:44.460Z,17.30
2023-05-21T05:07:11.246Z,17.70
2023-05-21T05:09:38.572Z,17.30
2023-05-21T05:12:05.472Z,17.40
2023-05-21T05:14:32.067Z,17.40
2023-05-21T05:17:00.655Z,17.50
2023-05-21T05:19:27.546Z,17.60
2023-05-21T05:21:55.008Z,17.60
2023-05-21T05:24:21.691Z,17.70
2023-05-21T05:26:48.375Z,17.70
2023-05-21T05:29:16.350Z,17.70
2023-05-21T05:31:42.996Z,17.70
2023-05-21T05:34:09.736Z,17.80
2023-05-21T05:36:36.326Z,17.90
2023-05-21T05:39:03.278Z,18.00
2023-05-21T05:41:29.884Z,15.90
2023-05-21T05:44:01.626Z,18.10
2023-05-21T05:46:29.240Z,18.30
2023-05-21T05:48:56.094Z,18.40
2023-05-21T05:51:22.776Z,18.40
2023-05-21T05:53:49.404Z,18.50
2023-05-21T05:56:17.176Z,18.60
2023-05-21T05:58:43.804Z,18.70
2023-05-21T06:01:10.370Z,18.80
2023-05-21T06:03:37.347Z,19.10
2023-05-21T06:06:04.016Z,19.20
2023-05-21T06:08:30.732Z,19.30
2023-05-21T06:10:57.344Z,19.50
2023-05-21T06:13:23.945Z,19.70
2023-05-21T06:15:51.511Z,19.90
2023-05-21T06:18:18.180Z,20.20
2023-05-21T06:20:44.813Z,20.50
2023-05-21T06:23:11.647Z,20.80
2023-05-21T06:25:40.542Z,21.20
2023-05-21T06:28:07.157Z,21.40
2023-05-21T06:30:33.757Z,21.50
2023-05-21T06:33:00.790Z,21.60
2023-05-21T06:35:27.509Z,21.70
2023-05-21T06:37:54.171Z,21.70
2023-05-21T06:40:21.685Z,21.80
2023-05-21T06:42:48.371Z,21.70
2023-05-21T06:45:15.009Z,21.70
2023-05-21T06:47:42.282Z,21.80
2023-05-21T06:50:09.038Z,22.00
2023-05-21T06:52:35.673Z,22.10
2023-05-21T06:55:02.337Z,22.20
2023-05-21T06:57:28.929Z,22.30
2023-05-21T06:59:55.505Z,22.40
2023-05-21T07:02:22.411Z,22.50
2023-05-21T07:04:49.626Z,22.70
2023-05-21T07:07:16.473Z,22.90
2023-05-21T07:09:43.127Z,22.80
2023-05-21T07:12:09.726Z,23.00
2023-05-21T07:14:36.335Z,23.20
2023-05-21T07:17:03.654Z,23.30
2023-05-21T07:19:30.411Z,23.30
2023-05-21T07:21:57.532Z,23.60
2023-05-21T07:24:24.194Z,23.70
2023-05-21T07:26:51.616Z,23.80
2023-05-21T07:29:18.556Z,23.80
2023-05-21T07:31:45.180Z,24.00
2023-05-21T07:34:11.771Z,23.90
2023-05-21T07:36:38.537Z,23.80
2023-05-21T07:39:05.313Z,24.00
2023-05-21T07:41:32.671Z,24.20
2023-05-21T07:44:01.549Z,24.40
2023-05-21T07:46:28.248Z,24.70
2023-05-21T07:48:54.959Z,25.00
2023-05-21T07:51:21.801Z,25.00
2023-05-21T07:53:48.395Z,25.10
2023-05-21T07:56:15.026Z,25.20
2023-05-21T07:58:43.888Z,25.30
2023-05-21T08:01:10.520Z,25.60
2023-05-21T08:03:37.471Z,25.90
2023-05-21T08:06:04.704Z,26.00
2023-05-21T08:08:31.406Z,25.90
2023-05-21T08:10:58.104Z,26.30
2023-05-21T08:13:24.721Z,26.60
2023-05-21T08:15:53.528Z,26.80
2023-05-21T08:18:20.446Z,27.40
2023-05-21T08:20:48.459Z,27.80
2023-05-21T08:23:15.503Z,28.40
2023-05-21T08:25:42.132Z,28.60
2023-05-21T08:28:08.708Z,28.90
2023-05-21T08:30:35.335Z,29.00
2023-05-21T08:33:02.505Z,29.20
2023-05-21T08:35:29.212Z,28.50
2023-05-21T08:37:55.910Z,28.30
2023-05-21T08:40:22.578Z,28.30
2023-05-21T08:42:49.908Z,28.60
2023-05-21T08:45:23.566Z,28.80
2023-05-21T08:47:55.385Z,29.00
2023-05-21T08:50:22.122Z,31.30
2023-05-21T08:52:50.259Z,29.00
2023-05-21T08:55:17.076Z,28.80
2023-05-21T08:57:44.325Z,29.10
2023-05-21T09:00:11.874Z,29.50
2023-05-21T09:02:40.931Z,29.40
2023-05-21T09:05:09.161Z,29.80
2023-05-21T09:07:56.011Z,30.00
2023-05-21T09:10:24.106Z,29.90
2023-05-21T09:12:50.949Z,30.00
2023-05-21T09:15:17.590Z,29.90
2023-05-21T09:17:46.645Z,29.70
2023-05-21T09:20:17.256Z,29.20
2023-05-21T09:22:45.069Z,29.00
2023-05-21T09:25:12.636Z,29.50
2023-05-21T09:27:39.712Z,29.80
2023-05-21T09:30:24.687Z,30.40
2023-05-21T09:32:55.393Z,31.40
2023-05-21T09:35:22.118Z,30.90
2023-05-21T09:37:49.652Z,31.30
2023-05-21T09:40:17.167Z,31.40
2023-05-21T09:42:46.555Z,31.10
2023-05-21T09:45:17.665Z,31.50
2023-05-21T09:47:44.757Z,31.10
2023-05-21T09:50:12.309Z,31.20
2023-05-21T09:52:41.910Z,31.00
2023-05-21T09:55:12.659Z,31.10
2023-05-21T09:57:47.594Z,30.90
2023-05-21T10:00:20.052Z,31.10
2023-05-21T10:02:47.903Z,30.90
2023-05-21T10:05:15.952Z,30.50
2023-05-21T10:07:43.874Z,30.20
2023-05-21T10:10:14.778Z,29.90
2023-05-21T10:12:43.082Z,29.60
2023-05-21T10:15:12.123Z,29.40
2023-05-21T10:17:39.297Z,29.40
2023-05-21T10:20:07.919Z,29.30
2023-05-21T10:22:35.221Z,29.10
2023-05-21T10:25:03.738Z,29.20
2023-05-21T10:27:32.507Z,29.20
2023-05-21T10:30:00.071Z,29.30
2023-05-21T10:32:26.938Z,29.30
2023-05-21T10:34:54.291Z,29.20
2023-05-21T10:37:23.736Z,29.10
2023-05-21T10:39:53.483Z,29.30
2023-05-21T10:42:21.519Z,29.00
2023-05-21T10:44:55.732Z,29.00
2023-05-21T10:47:31.981Z,28.80
2023-05-21T10:50:16.857Z,28.90
2023-05-21T10:52:50.763Z,29.10
2023-05-21T10:55:29.174Z,28.90
2023-05-21T10:58:08.022Z,28.90
2023-05-21T11:00:34.952Z,28.80
2023-05-21T11:03:02.528Z,29.00
2023-05-21T11:05:47.969Z,29.10
2023-05-21T11:08:23.727Z,28.70
2023-05-21T11:10:54.843Z,28.90
2023-05-21T11:13:21.818Z,29.10
2023-05-21T11:15:57.382Z,28.90
2023-05-21T11:18:44.296Z,28.60
2023-05-21T11:21:11.936Z,28.20
2023-05-21T11:23:48.819Z,28.40
2023-05-21T11:26:16.212Z,28.80
2023-05-21T11:28:42.807Z,29.10
2023-05-21T11:31:25.877Z,29.30
2023-05-21T11:34:13.784Z,29.60
2023-05-21T11:36:42.248Z,29.60
2023-05-21T11:39:13.711Z,29.80
2023-05-21T11:41:52.423Z,30.10
2023-05-21T11:44:19.144Z,30.20
2023-05-21T11:46:46.424Z,30.60
2023-05-21T11:49:13.186Z,30.90
2023-05-21T11:51:40.806Z,31.10
2023-05-21T11:54:08.989Z,31.00
2023-05-21T11:56:36.670Z,31.00
2023-05-21T11:59:03.428Z,31.10
2023-05-21T12:01:32.205Z,31.30
2023-05-21T12:03:58.865Z,31.20
2023-05-21T12:06:31.283Z,31.20
2023-05-21T12:08:58.481Z,31.00
2023-05-21T12:11:26.842Z,30.80
2023-05-21T12:13:53.554Z,30.60
2023-05-21T12:16:20.915Z,30.60
2023-05-21T12:18:47.979Z,30.40
2023-05-21T12:21:15.158Z,30.30
2023-05-21T12:23:41.727Z,30.40
2023-05-21T12:26:09.302Z,30.40
2023-05-21T12:28:36.361Z,30.20
2023-05-21T12:31:02.947Z,29.90
2023-05-21T12:33:36.194Z,29.70
2023-05-21T12:36:03.974Z,29.20
2023-05-21T12:38:31.709Z,29.20
2023-05-21T12:41:04.900Z,29.60
2023-05-21T12:43:32.329Z,30.40
2023-05-21T12:45:58.945Z,30.90
2023-05-21T12:48:25.718Z,31.20
2023-05-21T12:50:52.719Z,31.20
2023-05-21T12:53:19.391Z,31.60
2023-05-21T12:55:46.092Z,31.80
2023-05-21T12:58:13.706Z,32.30
2023-05-21T13:00:41.728Z,32.30
2023-05-21T13:03:08.515Z,32.40
2023-05-21T13:05:35.662Z,33.00
2023-05-21T13:08:02.664Z,33.00
2023-05-21T13:10:29.287Z,33.80
2023-05-21T13:12:55.876Z,33.60
2023-05-21T13:15:22.501Z,33.50
2023-05-21T13:17:50.846Z,33.50
2023-05-21T13:20:21.374Z,33.20
2023-05-21T13:22:49.109Z,33.30
2023-05-21T13:25:22.061Z,33.30
2023-05-21T13:27:49.396Z,33.10
2023-05-21T13:30:16.160Z,33.20
2023-05-21T13:32:43.458Z,32.70
2023-05-21T13:35:11.231Z,32.40
2023-05-21T13:37:40.559Z,32.40
2023-05-21T13:40:09.201Z,32.60
2023-05-21T13:42:37.685Z,32.60
2023-05-21T13:45:05.252Z,32.90
2023-05-21T13:47:32.538Z,32.70
2023-05-21T13:49:59.154Z,32.70
2023-05-21T13:52:25.806Z,32.70
2023-05-21T13:54:52.379Z,32.40
2023-05-21T13:57:19.685Z,32.40
2023-05-21T13:59:46.615Z,32.50
2023-05-21T14:02:13.494Z,32.40
2023-05-21T14:04:40.110Z,32.30
2023-05-21T14:07:07.233Z,32.60
2023-05-21T14:09:34.357Z,32.70
2023-05-21T14:12:01.439Z,32.20
2023-05-21T14:14:28.133Z,31.90
2023-05-21T14:16:55.026Z,31.40
2023-05-21T14:19:21.984Z,31.10
2023-05-21T14:21:48.714Z,30.90
2023-05-21T14:24:15.351Z,30.90
2023-05-21T14:26:42.034Z,31.20
2023-05-21T14:29:08.835Z,30.80
2023-05-21T14:31:35.751Z,30.70
2023-05-21T14:34:06.959Z,30.50
2023-05-21T14:36:33.598Z,30.50
2023-05-21T14:39:01.998Z,30.70
2023-05-21T14:41:28.946Z,30.60
2023-05-21T14:43:56.324Z,30.20
2023-05-21T14:46:23.055Z,30.00
2023-05-21T14:48:49.749Z,30.00
2023-05-21T14:51:16.491Z,30.10
2023-05-21T14:53:43.114Z,30.30
2023-05-21T14:56:09.867Z,30.60
2023-05-21T14:58:36.461Z,30.70
2023-05-21T15:01:04.276Z,30.60
2023-05-21T15:03:31.218Z,30.90
2023-05-21T15:05:58.609Z,31.00
2023-05-21T15:08:25.455Z,30.90
2023-05-21T15:10:52.261Z,30.90
2023-05-21T15:13:18.880Z,30.60
2023-05-21T15:15:45.560Z,27.70
2023-05-21T15:18:13.256Z,30.60
2023-05-21T15:20:39.860Z,30.60
2023-05-21T15:23:16.059Z,30.50
2023-05-21T15:25:44.377Z,30.40
2023-05-21T15:28:12.162Z,30.20
2023-05-21T15:30:39.078Z,29.80
2023-05-21T15:33:05.735Z,29.70
2023-05-21T15:35:32.444Z,29.50
2023-05-21T15:37:59.245Z,27.50
2023-05-21T15:40:27.239Z,29.10
2023-05-21T15:42:54.310Z,29.00
2023-05-21T15:45:21.093Z,28.90
2023-05-21T15:47:47.908Z,28.80
2023-05-21T15:50:14.709Z,28.70
2023-05-21T15:52:41.648Z,28.70
2023-05-21T15:55:10.285Z,28.70
2023-05-21T15:57:37.266Z,28.70
2023-05-21T16:00:04.984Z,28.50
2023-05-21T16:02:31.798Z,28.50
2023-05-21T16:04:58.539Z,28.20
2023-05-21T16:07:25.344Z,28.30
2023-05-21T16:09:51.923Z,28.20
2023-05-21T16:12:18.553Z,28.00
2023-05-21T16:14:48.355Z,27.90
2023-05-21T16:17:15.056Z,29.60
2023-05-21T16:19:41.725Z,27.60
2023-05-21T16:22:10.036Z,28.00
2023-05-21T16:24:37.458Z,27.40
2023-05-21T16:27:04.115Z,27.40
2023-05-21T16:29:30.804Z,27.30
2023-05-21T16:31:57.416Z,27.20
2023-05-21T16:34:24.060Z,27.30
2023-05-21T16:36:51.669Z,27.30
2023-05-21T16:39:18.382Z,27.30
2023-05-21T16:41:45.031Z,27.30
2023-05-21T16:44:11.611Z,27.30
2023-05-21T16:46:38.383Z,27.30
2023-05-21T16:49:05.288Z,27.30
2023-05-21T16:51:31.908Z,27.20
2023-05-21T16:53:58.724Z,27.10
2023-05-21T16:56:26.622Z,27.10
2023-05-21T16:58:53.287Z,27.00
2023-05-21T17:01:19.991Z,27.00
2023-05-21T17:03:46.784Z,26.80
2023-05-21T17:06:14.805Z,26.70
2023-05-21T17:08:42.683Z,26.60
2023-05-21T17:11:09.253Z,26.50
2023-05-21T17:13:35.921Z,26.40
2023-05-21T17:16:02.713Z,26.30
2023-05-21T17:18:29.334Z,26.30
2023-05-21T17:20:56.442Z,26.30
2023-05-21T17:23:23.073Z,26.10
2023-05-21T17:25:49.760Z,26.00
2023-05-21T17:28:16.363Z,25.90
2023-05-21T17:30:43.033Z,25.90
2023-05-21T17:33:10.773Z,25.80
2023-05-21T17:35:38.731Z,25.70
2023-05-21T17:38:05.737Z,25.70
2023-05-21T17:40:32.332Z,25.70
2023-05-21T17:42:58.951Z,25.60
2023-05-21T17:45:25.586Z,25.60
2023-05-21T17:47:52.331Z,25.50
2023-05-21T17:50:19.061Z,25.40
2023-05-21T17:52:45.655Z,25.30
2023-05-21T17:55:12.351Z,25.20
2023-05-21T17:57:39.143Z,25.10
2023-05-21T18:00:07.185Z,25.00
2023-05-21T18:02:34.002Z,27.10
2023-05-21T18:05:01.260Z,24.80
2023-05-21T18:07:28.040Z,24.70
2023-05-21T18:09:54.787Z,24.50
2023-05-21T18:12:21.686Z,24.50
2023-05-21T18:14:48.484Z,24.40
2023-05-21T18:17:15.156Z,24.20
2023-05-21T18:19:41.809Z,24.20
2023-05-21T18:22:08.788Z,24.00
2023-05-21T18:24:37.457Z,23.90
2023-05-21T18:27:04.135Z,23.80
2023-05-21T18:29:30.976Z,23.80
2023-05-21T18:31:57.743Z,23.70
2023-05-21T18:34:24.442Z,23.60
2023-05-21T18:36:51.006Z,23.50
2023-05-21T18:39:17.699Z,23.40
2023-05-21T18:41:44.278Z,23.30
2023-05-21T18:44:10.989Z,23.20
2023-05-21T18:46:37.839Z,23.10
2023-05-21T18:49:04.899Z,23.00
2023-05-21T18:51:31.761Z,23.10
2023-05-21T18:53:58.717Z,22.70
2023-05-21T18:56:25.871Z,22.50
2023-05-21T18:58:52.540Z,22.40
2023-05-21T19:01:19.222Z,22.30
2023-05-21T19:03:45.850Z,22.10
2023-05-21T19:06:12.445Z,22.00
2023-05-21T19:08:41.123Z,24.70
2023-05-21T19:11:08.038Z,21.80
2023-05-21T19:13:34.673Z,21.80
2023-05-21T19:16:02.281Z,21.70
2023-05-21T19:18:32.350Z,21.50
2023-05-21T19:21:00.217Z,21.50
2023-05-21T19:23:26.935Z,21.30
2023-05-21T19:25:53.609Z,21.20
2023-05-21T19:28:20.371Z,21.10
2023-05-21T19:30:47.191Z,21.00
2023-05-21T19:33:13.929Z,20.90
2023-05-21T19:35:42.022Z,20.90
2023-05-21T19:38:11.711Z,20.90
2023-05-21T19:40:38.661Z,20.80
2023-05-21T19:43:05.693Z,20.70
2023-05-21T19:45:32.461Z,20.80
2023-05-21T19:47:59.743Z,20.80
2023-05-21T19:50:28.538Z,20.70
2023-05-21T19:52:57.281Z,20.70
2023-05-21T19:55:24.722Z,20.60
2023-05-21T19:57:51.621Z,20.70
2023-05-21T20:00:18.729Z,20.60
2023-05-21T20:02:45.900Z,20.60
2023-05-21T20:05:12.695Z,20.60
2023-05-21T20:07:39.558Z,20.60
2023-05-21T20:10:06.863Z,20.50
2023-05-21T20:12:33.491Z,20.60
2023-05-21T20:15:00.845Z,20.40
2023-05-21T20:17:28.627Z,20.50
2023-05-21T20:19:57.276Z,20.50
2023-05-21T20:22:23.937Z,20.60
2023-05-21T20:24:50.646Z,20.50
2023-05-21T20:27:19.596Z,20.40
2023-05-21T20:29:46.276Z,20.30
2023-05-21T20:32:13.097Z,20.20
2023-05-21T20:34:54.433Z,20.20
2023-05-21T20:37:27.121Z,20.10
2023-05-21T20:39:57.731Z,20.00
2023-05-21T20:42:29.599Z,19.90
2023-05-21T20:44:58.864Z,19.90
2023-05-21T20:47:29.799Z,19.70
2023-05-21T20:49:57.883Z,19.70
2023-05-21T20:52:25.039Z,19.60
2023-05-21T20:54:54.538Z,19.50
2023-05-21T20:57:22.466Z,19.40
2023-05-21T20:59:49.052Z,19.30
2023-05-21T21:02:16.200Z,19.30
2023-05-21T21:04:42.778Z,19.10
2023-05-21T21:07:10.921Z,19.00
2023-05-21T21:09:37.617Z,18.90
2023-05-21T21:12:21.117Z,18.90
2023-05-21T21:14:48.082Z,18.80
2023-05-21T21:17:14.805Z,18.80
2023-05-21T21:19:41.496Z,18.70
2023-05-21T21:22:08.103Z,18.70
2023-05-21T21:24:34.804Z,18.60
2023-05-21T21:27:01.511Z,18.60
2023-05-21T21:29:28.092Z,18.50
2023-05-21T21:31:54.786Z,18.40
2023-05-21T21:34:23.427Z,18.30
2023-05-21T21:36:50.668Z,18.20
2023-05-21T21:39:20.064Z,18.20
2023-05-21T21:41:46.732Z,18.10
2023-05-21T21:44:13.681Z,18.00
2023-05-21T21:46:40.318Z,17.90
2023-05-21T21:49:07.466Z,17.80
2023-05-21T21:51:34.093Z,17.80
2023-05-21T21:54:00.798Z,17.70
2023-05-21T21:56:27.390Z,17.60
2023-05-21T21:58:54.000Z,17.60
2023-05-21T22:01:20.709Z,17.50
2023-05-21T22:03:47.413Z,17.40
2023-05-21T22:06:14.081Z,17.40
2023-05-21T22:08:40.817Z,17.30
2023-05-21T22:11:07.437Z,17.30
2023-05-21T22:13:34.376Z,17.30
2023-05-21T22:16:02.187Z,17.30
2023-05-21T22:18:40.138Z,17.20
2023-05-21T22:21:09.746Z,17.20
2023-05-21T22:23:36.937Z,17.10
2023-05-21T22:26:03.945Z,17.10
2023-05-21T22:28:30.893Z,17.00
2023-05-21T22:30:57.925Z,17.00
2023-05-21T22:33:24.796Z,17.00
2023-05-21T22:35:51.489Z,17.00
2023-05-21T22:38:18.166Z,17.00
2023-05-21T22:40:44.761Z,14.50
2023-05-21T22:43:11.448Z,16.90
2023-05-21T22:45:38.442Z,16.90
2023-05-21T22:48:07.285Z,16.70
2023-05-21T22:50:34.111Z,16.80
2023-05-21T22:53:00.784Z,16.80
2023-05-21T22:55:27.432Z,16.70
2023-05-21T22:57:54.072Z,16.70
2023-05-21T23:00:20.862Z,16.70
2023-05-21T23:02:48.045Z,16.60
2023-05-21T23:05:15.065Z,16.60
2023-05-21T23:07:42.582Z,16.50
2023-05-21T23:10:09.312Z,16.50
2023-05-21T23:12:36.781Z,16.40
2023-05-21T23:15:04.600Z,16.30
2023-05-21T23:17:31.300Z,17.40
2023-05-21T23:19:59.350Z,16.20
2023-05-21T23:22:26.242Z,16.20
2023-05-21T23:45:05.833Z,15.80
2023-05-21T23:47:32.454Z,13.90
2023-05-21T23:49:59.072Z,15.70
2023-05-21T23:52:25.837Z,15.60
2023-05-21T23:54:52.475Z,15.60
2023-05-21T23:57:19.089Z,15.60
2023-05-21T23:59:45.685Z,15.60
